createdAt,value
2019-06-20T00:02:25.511Z,0
2019-06-20T00:08:04.872Z,0
2019-06-20T00:13:43.925Z,0
2019-06-20T00:19:13.305Z,0
2019-06-20T00:24:39.185Z,0
2019-06-20T00:30:24.655Z,0
2019-06-20T00:35:52.263Z,0
2019-06-20T00:41:20.574Z,0
2019-06-20T00:47:04.171Z,0
2019-06-20T00:52:28.199Z,0
2019-06-20T00:58:03.795Z,14.4
2019-06-20T01:03:37.464Z,18
2019-06-20T01:09:21.174Z,25.1
2019-06-20T01:14:54.870Z,21.5
2019-06-20T01:20:24.773Z,11.9
2019-06-20T01:25:57.366Z,20.4
2019-06-20T01:31:38.541Z,16.8
2019-06-20T01:37:14.902Z,10.7
2019-06-20T01:42:36.203Z,0
2019-06-20T01:48:19.974Z,0
2019-06-20T01:53:57.340Z,9.6
2019-06-20T01:59:31.482Z,11.9
2019-06-20T02:04:56.653Z,11.9
2019-06-20T02:10:43.053Z,9.6
2019-06-20T02:16:05.912Z,13.2
2019-06-20T02:21:42.935Z,8.4
2019-06-20T02:27:15.862Z,7.2
2019-06-20T02:32:47.277Z,9.6
2019-06-20T02:38:32.972Z,9.6
2019-06-20T02:43:55.266Z,5.9
2019-06-20T02:49:34.513Z,10.7
2019-06-20T02:55:05.118Z,10.7
2019-06-20T03:00:43.412Z,10.7
2019-06-20T03:06:16.807Z,10.7
2019-06-20T03:11:51.115Z,5.9
2019-06-20T03:17:31.208Z,0
2019-06-20T03:22:59.068Z,0
2019-06-20T03:28:40.679Z,0
2019-06-20T03:34:01.909Z,0
2019-06-20T03:39:43.896Z,0
2019-06-20T03:45:18.772Z,0
2019-06-20T03:50:51.366Z,0
2019-06-20T03:56:27.487Z,0
2019-06-20T04:02:02.924Z,0
2019-06-20T04:07:34.871Z,0
2019-06-20T04:13:04.449Z,0
2019-06-20T04:18:43.084Z,0
2019-06-20T04:24:09.983Z,0
2019-06-20T04:29:48.692Z,0
2019-06-20T04:35:20.767Z,0
2019-06-20T04:40:56.869Z,0
2019-06-20T04:46:21.273Z,0
2019-06-20T04:52:01.253Z,0
2019-06-20T04:57:32.393Z,0
2019-06-20T05:03:00.930Z,0
2019-06-20T05:08:30.600Z,0
2019-06-20T05:14:12.369Z,0
2019-06-20T05:19:48.327Z,0
2019-06-20T05:25:17.134Z,0
2019-06-20T05:30:45.334Z,0
2019-06-20T05:36:31.179Z,0
2019-06-20T05:41:58.302Z,0
2019-06-20T05:47:25.367Z,0
2019-06-20T05:53:04.506Z,0
2019-06-20T05:58:43.489Z,0
2019-06-20T06:04:09.055Z,0
2019-06-20T06:09:41.960Z,0
2019-06-20T06:15:23.332Z,0
2019-06-20T06:20:49.417Z,0
2019-06-20T06:26:27.656Z,0
2019-06-20T06:31:58.913Z,0
2019-06-20T06:37:28.952Z,0
2019-06-20T06:43:06.911Z,0
2019-06-20T06:48:41.710Z,0
2019-06-20T06:54:11.597Z,0
2019-06-20T06:59:46.207Z,0
2019-06-20T07:05:17.158Z,0
2019-06-20T07:11:00.247Z,0
2019-06-20T07:16:24.465Z,0
2019-06-20T07:22:03.715Z,0
2019-06-20T07:27:41.537Z,0
2019-06-20T07:33:13.147Z,0
2019-06-20T07:38:50.664Z,0
2019-06-20T07:44:21.311Z,0
2019-06-20T07:50:00.737Z,0
2019-06-20T07:55:38.251Z,0
2019-06-20T08:01:08.983Z,0
2019-06-20T08:06:47.073Z,0
2019-06-20T08:12:25.081Z,0
2019-06-20T08:17:46.318Z,0
2019-06-20T08:23:26.826Z,7.2
2019-06-20T08:29:19.939Z,10.7
2019-06-20T08:34:34.419Z,9.6
2019-06-20T08:40:08.692Z,8.4
2019-06-20T08:45:39.400Z,9.6
2019-06-20T08:51:27.693Z,11.9
2019-06-20T08:56:54.526Z,11.9
2019-06-20T09:02:27.314Z,9.6
2019-06-20T09:08:04.588Z,9.6
2019-06-20T09:13:34.750Z,10.7
2019-06-20T09:19:11.543Z,10.7
2019-06-20T09:24:49.257Z,11.9
2019-06-20T09:30:27.782Z,20.4
2019-06-20T09:36:05.158Z,15.6
2019-06-20T09:41:36.722Z,16.8
2019-06-20T09:47:08.136Z,14.4
2019-06-20T09:52:42.064Z,20.4
2019-06-20T09:58:27.455Z,18
2019-06-20T10:04:00.304Z,14.4
2019-06-20T10:09:35.678Z,18
2019-06-20T10:15:08.190Z,20.4
2019-06-20T10:20:41.009Z,20.4
2019-06-20T10:26:29.185Z,16.8
2019-06-20T10:31:53.651Z,18
2019-06-20T10:37:41.582Z,16.8
2019-06-20T10:43:03.968Z,11.9
2019-06-20T10:48:53.259Z,13.2
2019-06-20T10:54:29.418Z,14.4
2019-06-20T11:00:04.230Z,11.9
2019-06-20T11:05:35.244Z,15.6
2019-06-20T11:11:13.469Z,14.4
2019-06-20T11:16:45.114Z,13.2
2019-06-20T11:22:21.626Z,9.6
2019-06-20T11:27:57.015Z,10.7
2019-06-20T11:33:27.934Z,11.9
2019-06-20T11:39:15.746Z,14.4
2019-06-20T11:44:50.989Z,15.6
2019-06-20T11:50:22.377Z,16.8
2019-06-20T11:56:03.230Z,15.6
2019-06-20T12:01:40.021Z,13.2
2019-06-20T12:07:16.620Z,13.2
2019-06-20T12:12:46.888Z,0
2019-06-20T12:18:20.532Z,0
2019-06-20T12:23:51.100Z,10.7
2019-06-20T12:29:41.898Z,0
2019-06-20T12:35:07.789Z,9.6
2019-06-20T12:40:46.135Z,10.7
2019-06-20T12:46:27.109Z,10.7
2019-06-20T12:52:01.899Z,11.9
2019-06-20T12:57:30.904Z,15.6
2019-06-20T13:03:06.460Z,14.4
2019-06-20T13:08:47.395Z,15.6
2019-06-20T13:14:27.980Z,22.8
2019-06-20T13:20:04.806Z,19.2
2019-06-20T13:25:39.502Z,16.8
2019-06-20T13:31:07.808Z,15.6
2019-06-20T13:36:52.267Z,15.6
2019-06-20T13:42:21.928Z,18
2019-06-20T13:48:05.927Z,13.2
2019-06-20T13:53:39.173Z,10.7
2019-06-20T13:59:11.639Z,5.9
2019-06-20T14:04:37.490Z,8.4
2019-06-20T14:10:12.112Z,3.6
2019-06-20T14:15:53.994Z,11.9
2019-06-20T14:21:21.825Z,15.6
2019-06-20T14:26:58.449Z,15.6
2019-06-20T14:32:41.468Z,10.7
2019-06-20T14:38:10.340Z,11.9
2019-06-20T14:43:40.721Z,11.9
2019-06-20T14:49:17.348Z,11.9
2019-06-20T14:55:03.625Z,9.6
2019-06-20T15:00:38.089Z,7.2
2019-06-20T15:06:02.902Z,11.9
2019-06-20T15:11:46.419Z,13.2
2019-06-20T15:17:12.105Z,14.4
2019-06-20T15:22:56.897Z,20.4
2019-06-20T15:28:27.562Z,19.2
2019-06-20T15:34:04.375Z,16.8
2019-06-20T15:39:41.731Z,16.8
2019-06-20T15:45:02.563Z,16.8
2019-06-20T15:50:48.965Z,16.8
2019-06-20T15:56:15.849Z,19.2
2019-06-20T16:01:48.068Z,18
2019-06-20T16:07:35.437Z,15.6
2019-06-20T16:13:05.138Z,10.7
2019-06-20T16:18:37.343Z,9.6
2019-06-20T16:24:12.872Z,10.7
2019-06-20T16:29:45.946Z,9.6
2019-06-20T16:35:24.981Z,10.7
2019-06-20T16:40:56.357Z,9.6
2019-06-20T16:46:31.040Z,5.9
2019-06-20T16:52:02.154Z,0
2019-06-20T16:57:43.801Z,0
2019-06-20T17:03:21.805Z,8.4
2019-06-20T17:08:44.866Z,0
2019-06-20T17:14:22.189Z,0
2019-06-20T17:20:01.238Z,0
2019-06-20T17:25:37.834Z,0
2019-06-20T17:31:08.457Z,0
2019-06-20T17:36:39.457Z,0
2019-06-20T17:42:19.385Z,0
2019-06-20T17:47:57.205Z,10.7
2019-06-20T17:53:22.050Z,9.6
2019-06-20T17:58:59.137Z,5.9
2019-06-20T18:04:30.435Z,0
2019-06-20T18:10:05.743Z,0
2019-06-20T18:15:50.187Z,7.2
2019-06-20T18:21:21.116Z,9.6
2019-06-20T18:26:47.034Z,7.2
2019-06-20T18:32:27.438Z,7.2
2019-06-20T18:38:02.682Z,10.7
2019-06-20T18:43:44.804Z,7.2
2019-06-20T18:49:15.320Z,8.4
2019-06-20T18:54:46.350Z,8.4
2019-06-20T19:00:33.935Z,9.6
2019-06-20T19:06:00.653Z,9.6
2019-06-20T19:11:38.552Z,11.9
2019-06-20T19:17:07.268Z,13.2
2019-06-20T19:22:52.061Z,9.6
2019-06-20T19:28:14.196Z,0
2019-06-20T19:33:53.365Z,0
2019-06-20T19:39:20.033Z,0
2019-06-20T19:45:02.366Z,0
2019-06-20T19:50:39.816Z,10.7
2019-06-20T19:56:04.903Z,10.7
2019-06-20T20:01:38.652Z,10.7
2019-06-20T20:07:08.623Z,9.6
2019-06-20T20:12:50.029Z,10.7
2019-06-20T20:18:26.404Z,11.9
2019-06-20T20:23:55.537Z,11.9
2019-06-20T20:29:33.989Z,14.4
2019-06-20T20:40:41.661Z,13.2
2019-06-20T20:46:18.131Z,13.2
2019-06-20T20:51:52.728Z,11.9
2019-06-20T20:57:30.561Z,11.9
2019-06-20T21:02:59.254Z,10.7
2019-06-20T21:08:25.836Z,10.7
2019-06-20T21:14:04.860Z,14.4
2019-06-20T21:19:41.755Z,11.9
2019-06-20T21:25:12.256Z,13.2
2019-06-20T21:30:45.872Z,15.6
2019-06-20T21:36:19.278Z,15.6
2019-06-20T21:41:56.554Z,14.4
2019-06-20T21:47:25.857Z,18
2019-06-20T21:53:10.235Z,19.2
2019-06-20T21:58:37.828Z,13.2
2019-06-20T22:04:21.629Z,13.2
2019-06-20T22:09:53.348Z,10.7
2019-06-20T22:15:19.444Z,8.4
2019-06-20T22:20:56.644Z,2.4
2019-06-20T22:26:25.239Z,4.8
2019-06-20T22:32:04.741Z,5.9
2019-06-20T22:37:40.619Z,5.9
2019-06-20T22:43:15.442Z,0
2019-06-20T22:48:51.012Z,0
2019-06-20T22:54:23.633Z,0
2019-06-20T22:59:52.090Z,0
2019-06-20T23:05:25.554Z,4.8
2019-06-20T23:10:54.179Z,8.4
2019-06-20T23:16:38.207Z,9.6
2019-06-20T23:22:10.977Z,11.9
2019-06-20T23:27:37.413Z,10.7
2019-06-20T23:33:11.685Z,13.2
2019-06-20T23:38:47.711Z,10.7
2019-06-20T23:44:26.821Z,7.2
2019-06-20T23:49:54.448Z,10.7
2019-06-20T23:55:37.639Z,19.2
